Terminal Aerodrome Forecast
Issued by NWS Cleveland, OH

Home | Current Version | Previous Version | Graphics & Text | Print | Product List | Glossary On
Versions: 1 2 3 4 5 6 7 8 9 10 11 12 13 14 15 16 17 18 19 20
213
FTUS41 KCLE 030309 AAA
TAFERI
TAF AMD
KERI 030309Z 0303/0324 05006KT P6SM SCT020 BKN120
     FM030600 03006KT P6SM BKN020
     FM031600 33008KT P6SM OVC040=

USA.gov is the U.S. government's official web portal to all federal, state and local government web resources and services.